createdAt,value
2023-02-28T00:01:34.936Z,-2.909241
2023-02-28T00:05:00.108Z,-2.848816
2023-02-28T00:08:25.258Z,-2.889099
2023-02-28T00:11:50.446Z,-2.848816
2023-02-28T00:15:15.581Z,-2.76825
2023-02-28T00:18:40.782Z,-2.707825
2023-02-28T00:22:05.952Z,-2.788391
2023-02-28T00:25:31.159Z,-2.909241
2023-02-28T00:28:56.347Z,-3.02002
2023-02-28T00:32:21.498Z,-2.909241
2023-02-28T00:35:46.659Z,-2.76825
2023-02-28T00:39:11.798Z,-2.919312
2023-02-28T00:42:36.956Z,-2.919312
2023-02-28T00:46:02.218Z,-2.818604
2023-02-28T00:49:27.305Z,-2.657471
2023-02-28T00:52:52.454Z,-2.476196
2023-02-28T00:56:17.611Z,-2.415771
2023-02-28T00:59:42.770Z,-2.345276
2023-02-28T01:03:07.956Z,-2.27478
2023-02-28T01:06:33.088Z,-2.234497
2023-02-28T01:09:58.270Z,-2.244568
2023-02-28T01:13:23.427Z,-2.345276
2023-02-28T01:16:48.583Z,-2.345276
2023-02-28T01:20:13.781Z,-2.264709
2023-02-28T01:23:38.930Z,-2.244568
2023-02-28T01:27:04.086Z,-2.234497
2023-02-28T01:30:29.235Z,-2.27478
2023-02-28T01:33:54.413Z,-2.244568
2023-02-28T01:37:19.573Z,-2.27478
2023-02-28T01:40:44.714Z,-2.234497
2023-02-28T01:44:09.860Z,-2.335205
2023-02-28T01:47:35.024Z,-2.385559
2023-02-28T01:51:00.225Z,-2.486267
2023-02-28T01:54:25.425Z,-2.496338
2023-02-28T01:57:50.535Z,-2.637329
2023-02-28T02:01:15.706Z,-2.496338
2023-02-28T02:04:40.873Z,-2.456055
2023-02-28T02:08:06.054Z,-2.385559
2023-02-28T02:11:31.611Z,-2.385559
2023-02-28T02:14:56.369Z,-2.476196
2023-02-28T02:18:21.510Z,-2.556763
2023-02-28T02:21:46.711Z,-2.415771
2023-02-28T02:25:11.872Z,-2.445984
2023-02-28T02:28:37.045Z,-2.445984
2023-02-28T02:32:02.231Z,-2.516479
2023-02-28T02:35:27.442Z,-2.445984
2023-02-28T02:38:52.529Z,-2.335205
2023-02-28T02:42:17.697Z,-2.335205
2023-02-28T02:45:42.872Z,-2.385559
2023-02-28T02:49:07.988Z,-2.365417
2023-02-28T02:52:33.136Z,-2.27478
2023-02-28T02:55:58.298Z,-2.204285
2023-02-28T02:59:23.435Z,-2.244568
2023-02-28T03:02:48.694Z,-2.476196
2023-02-28T03:06:13.780Z,-2.597046
2023-02-28T03:09:38.933Z,-2.516479
2023-02-28T03:13:04.069Z,-2.486267
2023-02-28T03:16:29.326Z,-2.556763
2023-02-28T03:19:54.456Z,-2.597046
2023-02-28T03:23:19.568Z,-2.677612
2023-02-28T03:26:44.743Z,-2.637329
2023-02-28T03:30:09.899Z,-2.697754
2023-02-28T03:33:35.056Z,-2.738037
2023-02-28T03:37:00.356Z,-2.77832
2023-02-28T03:40:25.435Z,-2.77832
2023-02-28T03:43:50.607Z,-2.727966
2023-02-28T03:47:15.772Z,-2.738037
2023-02-28T03:50:40.925Z,-2.677612
2023-02-28T03:54:06.099Z,-2.848816
2023-02-28T03:57:31.252Z,-2.808533
2023-02-28T04:00:56.460Z,-2.727966
2023-02-28T04:04:21.637Z,-2.848816
2023-02-28T04:07:46.777Z,-2.818604
2023-02-28T04:11:11.974Z,-2.738037
2023-02-28T04:14:37.087Z,-2.77832
2023-02-28T04:18:02.274Z,-2.808533
2023-02-28T04:21:27.983Z,-2.808533
2023-02-28T04:24:52.583Z,-2.848816
2023-02-28T04:28:17.764Z,-2.818604
2023-02-28T04:31:42.909Z,-2.707825
2023-02-28T04:35:08.193Z,-2.808533
2023-02-28T04:38:33.466Z,-2.788391
2023-02-28T04:41:58.658Z,-2.76825
2023-02-28T04:45:24.515Z,-2.818604
2023-02-28T04:48:49.634Z,-2.858887
2023-02-28T04:52:14.781Z,-2.889099
2023-02-28T04:55:39.941Z,-2.889099
2023-02-28T04:59:05.133Z,-2.76825
2023-02-28T05:02:30.353Z,-2.727966
2023-02-28T05:05:55.520Z,-2.77832
2023-02-28T05:09:20.659Z,-2.738037
2023-02-28T05:12:45.843Z,-2.818604
2023-02-28T05:16:11.032Z,-2.919312
2023-02-28T05:19:36.174Z,-2.858887
2023-02-28T05:23:01.323Z,-2.858887
2023-02-28T05:26:26.512Z,-2.818604
2023-02-28T05:29:51.681Z,-2.838745
2023-02-28T05:33:16.883Z,-2.848816
2023-02-28T05:36:42.068Z,-2.838745
2023-02-28T05:40:07.209Z,-2.838745
2023-02-28T05:43:32.374Z,-2.738037
2023-02-28T05:46:57.551Z,-2.667542
2023-02-28T05:50:22.716Z,-2.707825
2023-02-28T05:53:47.900Z,-2.838745
2023-02-28T05:57:22.850Z,-2.909241
2023-02-28T06:00:38.217Z,-2.989807
2023-02-28T06:04:03.398Z,-3.050232
2023-02-28T06:07:28.553Z,-2.969666
2023-02-28T06:10:53.842Z,-2.919312
2023-02-28T06:14:18.893Z,-2.969666
2023-02-28T06:17:44.035Z,-2.939453
2023-02-28T06:21:09.220Z,-2.858887
2023-02-28T06:24:34.395Z,-2.909241
2023-02-28T06:27:59.606Z,-2.969666
2023-02-28T06:31:24.803Z,-2.999878
2023-02-28T06:34:49.907Z,-3.100586
2023-02-28T06:38:15.071Z,-2.989807
2023-02-28T06:41:53.449Z,-2.909241
2023-02-28T06:45:05.451Z,-3.02002
2023-02-28T06:48:30.599Z,-3.211365
2023-02-28T06:51:55.816Z,-3.140869
2023-02-28T06:55:20.987Z,-3.15094
2023-02-28T06:58:46.227Z,-3.241577
2023-02-28T07:02:11.469Z,-3.27179
2023-02-28T07:05:36.606Z,-3.28186
2023-02-28T07:09:01.784Z,-3.171082
2023-02-28T07:12:26.953Z,-2.889099
2023-02-28T07:15:52.183Z,-2.959595
2023-02-28T07:19:17.338Z,-3.050232
2023-02-28T07:22:42.494Z,-2.77832
2023-02-28T07:26:07.704Z,-1.589966
2023-02-28T07:29:32.873Z,-1.368408
2023-02-28T07:32:58.063Z,-1.398621
2023-02-28T07:36:23.258Z,-1.791382
2023-02-28T07:39:48.460Z,-2.496338
2023-02-28T07:43:13.639Z,-2.808533
2023-02-28T07:46:38.874Z,-2.858887
2023-02-28T07:50:04.004Z,-2.959595
2023-02-28T07:53:29.203Z,-2.909241
2023-02-28T07:56:54.535Z,-2.889099
2023-02-28T08:00:19.720Z,-2.76825
2023-02-28T08:03:44.864Z,-2.657471
2023-02-28T08:07:10.041Z,-2.546692
2023-02-28T08:10:35.210Z,-2.476196
2023-02-28T08:14:00.365Z,-2.52655
2023-02-28T08:17:25.569Z,-2.425842
2023-02-28T08:20:50.751Z,-2.476196
2023-02-28T08:24:15.950Z,-2.445984
2023-02-28T08:27:41.138Z,-2.184143
2023-02-28T08:31:06.325Z,-2.133789
2023-02-28T08:34:31.468Z,-2.063293
2023-02-28T08:37:56.643Z,-2.063293
2023-02-28T08:41:21.854Z,-2.033081
2023-02-28T08:44:47.122Z,-1.942444
2023-02-28T08:48:12.220Z,-1.922302
2023-02-28T08:51:37.392Z,-1.882019
2023-02-28T08:55:02.570Z,-1.791382
2023-02-28T08:58:27.749Z,-1.922302
2023-02-28T09:01:53.008Z,-1.841736
2023-02-28T09:05:18.145Z,-1.741028
2023-02-28T09:08:43.387Z,-1.64032
2023-02-28T09:12:08.574Z,-1.720886
2023-02-28T09:15:33.756Z,-1.690674
2023-02-28T09:18:58.967Z,-1.670532
2023-02-28T09:22:24.124Z,-1.64032
2023-02-28T09:25:49.338Z,-1.64032
2023-02-28T09:29:14.516Z,-1.579895
2023-02-28T09:32:39.696Z,-1.559753
2023-02-28T09:36:05.068Z,-1.489258
2023-02-28T09:39:30.081Z,-1.378479
2023-02-28T09:42:55.284Z,-1.297913
2023-02-28T09:46:20.495Z,-1.509399
2023-02-28T09:49:45.658Z,-1.51947
2023-02-28T09:53:10.840Z,-1.700745
2023-02-28T09:56:35.977Z,-1.77124
2023-02-28T10:00:01.139Z,-1.841736
2023-02-28T10:03:26.329Z,-2.033081
2023-02-28T10:06:51.495Z,-2.083435
2023-02-28T10:10:16.672Z,-2.053223
2023-02-28T10:13:41.813Z,-2.053223
2023-02-28T10:17:07.215Z,-1.77124
2023-02-28T10:20:32.402Z,-1.620178
2023-02-28T10:23:57.555Z,-1.610107
2023-02-28T10:27:22.748Z,-1.509399
2023-02-28T10:30:47.904Z,-1.348267
2023-02-28T10:34:13.081Z,-1.307983
2023-02-28T10:37:38.198Z,-1.086426
2023-02-28T10:41:03.411Z,-0.935364
2023-02-28T10:44:28.608Z,-0.864868
2023-02-28T10:47:54.938Z,-0.794373
2023-02-28T10:51:18.909Z,-0.905151
2023-02-28T10:54:44.059Z,-0.854797
2023-02-28T10:58:09.205Z,-0.754089
2023-02-28T11:01:34.787Z,-0.613098
2023-02-28T11:04:59.621Z,-0.603027
2023-02-28T11:08:24.711Z,-0.572815
2023-02-28T11:11:49.867Z,-0.341187
2023-02-28T11:15:15.033Z,-0.210266
2023-02-28T11:18:40.236Z,-0.250549
2023-02-28T11:22:05.345Z,-0.280762
2023-02-28T11:25:30.528Z,-0.210266
2023-02-28T11:28:55.689Z,-0.180054
2023-02-28T11:32:20.975Z,-0.099487
2023-02-28T11:35:46.077Z,-0.139771
2023-02-28T11:39:11.190Z,-0.159912
2023-02-28T11:42:36.361Z,-0.039062
2023-02-28T11:46:01.547Z,-0.149841
2023-02-28T11:49:26.710Z,0.001221
2023-02-28T11:52:51.915Z,-0.028992
2023-02-28T11:56:17.094Z,0.001221
2023-02-28T11:59:42.267Z,0.001221
2023-02-28T12:03:07.449Z,0.212708
2023-02-28T12:06:32.608Z,0.212708
2023-02-28T12:09:57.829Z,0.263062
2023-02-28T12:13:23.166Z,0.232849
2023-02-28T12:16:48.360Z,0.263062
2023-02-28T12:20:13.672Z,0.333557
2023-02-28T12:23:38.862Z,0.293274
2023-02-28T12:27:04.064Z,0.414124
2023-02-28T12:30:29.223Z,0.716248
2023-02-28T12:33:54.461Z,0.87738
2023-02-28T12:37:19.598Z,0.87738
2023-02-28T12:40:44.811Z,0.313416
2023-02-28T12:44:10.042Z,0.24292
2023-02-28T12:47:35.224Z,0.414124
2023-02-28T12:51:01.746Z,0.393982
2023-02-28T12:54:25.588Z,0.313416
2023-02-28T12:57:50.778Z,0.293274
2023-02-28T13:01:16.027Z,0.24292
2023-02-28T13:04:41.111Z,0.353699
2023-02-28T13:08:06.276Z,0.424194
2023-02-28T13:11:31.424Z,0.49469
2023-02-28T13:14:56.601Z,0.534973
2023-02-28T13:18:21.993Z,0.61554
2023-02-28T13:21:48.884Z,0.61554
2023-02-28T13:25:12.617Z,0.61554
2023-02-28T13:28:37.921Z,0.786743
2023-02-28T13:32:03.334Z,0.686035
2023-02-28T13:35:28.705Z,0.605469
2023-02-28T13:38:54.102Z,0.686035
2023-02-28T13:42:19.387Z,0.575256
2023-02-28T13:45:44.981Z,0.545044
2023-02-28T13:49:10.080Z,0.696106
2023-02-28T13:52:35.427Z,0.686035
2023-02-28T13:56:00.711Z,0.74646
2023-02-28T13:59:26.024Z,0.74646
2023-02-28T14:02:51.652Z,0.86731
2023-02-28T14:06:17.018Z,0.837097
2023-02-28T14:09:42.411Z,0.655823
2023-02-28T14:13:08.449Z,0.686035
2023-02-28T14:16:34.165Z,0.827026
2023-02-28T14:19:59.494Z,0.907593
2023-02-28T14:23:24.785Z,0.897522
2023-02-28T14:26:50.129Z,0.978088
2023-02-28T14:30:15.460Z,1.078796
2023-02-28T15:05:45.414Z,0.353699
2023-02-28T15:09:10.704Z,0.333557
2023-02-28T15:12:36.046Z,0.333557
2023-02-28T15:16:02.903Z,0.263062
2023-02-28T15:19:26.683Z,0.353699
2023-02-28T15:22:52.074Z,0.283203
2023-02-28T15:26:17.444Z,0.293274
2023-02-28T15:29:42.806Z,0.313416
2023-02-28T15:33:08.165Z,0.333557
2023-02-28T15:36:33.403Z,0.383911
2023-02-28T15:39:58.770Z,0.383911
2023-02-28T15:43:24.059Z,0.444336
2023-02-28T15:46:49.372Z,0.49469
2023-02-28T15:50:14.864Z,0.534973
2023-02-28T15:53:40.179Z,0.605469
2023-02-28T15:57:05.531Z,0.565186
2023-02-28T16:00:30.881Z,0.565186
2023-02-28T16:03:56.886Z,0.474548
2023-02-28T16:07:22.241Z,0.474548
2023-02-28T16:10:47.575Z,0.514832
2023-02-28T16:14:12.861Z,0.383911
2023-02-28T16:17:38.205Z,0.212708
2023-02-28T16:21:03.600Z,0.132141
2023-02-28T16:24:29.676Z,0.142212
2023-02-28T16:27:54.985Z,0.152283
2023-02-28T16:31:20.296Z,0.142212
2023-02-28T16:34:45.717Z,0.081787
2023-02-28T16:38:11.013Z,0.101929
2023-02-28T16:41:36.846Z,-0.00885
2023-02-28T16:45:01.997Z,-0.079346
2023-02-28T16:48:27.317Z,-0.079346
2023-02-28T16:51:53.560Z,-0.190125
2023-02-28T16:55:18.842Z,-0.149841
2023-02-28T16:58:44.104Z,-0.250549
2023-02-28T17:02:09.514Z,-0.210266
2023-02-28T17:05:34.730Z,-0.230408
2023-02-28T17:08:59.990Z,-0.341187
2023-02-28T17:12:25.278Z,-0.310974
2023-02-28T17:15:50.666Z,-0.462036
2023-02-28T17:19:15.882Z,-0.492249
2023-02-28T17:22:41.219Z,-0.582886
2023-02-28T17:26:06.474Z,-0.51239
2023-02-28T17:29:31.782Z,-0.51239
2023-02-28T17:32:57.033Z,-0.462036
2023-02-28T17:36:22.344Z,-0.462036
2023-02-28T17:39:47.687Z,-0.401611
2023-02-28T17:43:12.968Z,-0.51239
2023-02-28T17:46:38.342Z,-0.572815
2023-02-28T17:50:03.462Z,-0.693665
2023-02-28T17:53:28.821Z,-0.784302
2023-02-28T17:56:54.136Z,-0.76416
2023-02-28T18:00:19.490Z,-0.693665
2023-02-28T18:03:44.837Z,-0.824585
2023-02-28T18:07:10.237Z,-0.824585
2023-02-28T18:10:35.607Z,-0.975647
2023-02-28T18:14:00.959Z,-0.915222
2023-02-28T18:17:26.331Z,-0.854797
2023-02-28T18:20:51.712Z,-0.754089
2023-02-28T18:24:17.074Z,-0.673523
2023-02-28T18:27:42.483Z,-0.643311
2023-02-28T18:31:07.938Z,-0.582886
2023-02-28T18:34:33.288Z,-0.693665
2023-02-28T18:37:58.577Z,-0.703735
2023-02-28T18:41:23.888Z,-0.854797
2023-02-28T18:44:49.200Z,-0.905151
2023-02-28T18:48:14.543Z,-0.915222
2023-02-28T18:51:39.843Z,-0.935364
2023-02-28T18:55:05.135Z,-1.046143
2023-02-28T18:58:30.452Z,-1.036072
2023-02-28T19:01:55.778Z,-0.965576
2023-02-28T19:05:21.116Z,-0.975647
2023-02-28T19:08:46.406Z,-1.036072
2023-02-28T19:12:11.723Z,-1.046143
2023-02-28T19:15:37.050Z,-1.086426
2023-02-28T19:19:02.331Z,-1.166992
2023-02-28T19:22:27.671Z,-1.146851
2023-02-28T19:25:52.970Z,-1.116638
2023-02-28T19:29:18.274Z,-0.985718
2023-02-28T19:32:43.631Z,-0.945435
2023-02-28T19:36:08.898Z,-0.965576
2023-02-28T19:39:34.223Z,-1.01593
2023-02-28T19:43:01.671Z,-1.01593
2023-02-28T19:46:24.739Z,-0.965576
2023-02-28T19:49:50.074Z,-0.88501
2023-02-28T19:53:15.367Z,-1.01593
2023-02-28T19:56:40.672Z,-1.005859
2023-02-28T20:00:05.946Z,-1.036072
2023-02-28T20:03:31.241Z,-0.945435
2023-02-28T20:06:56.591Z,-0.935364
2023-02-28T20:10:21.914Z,-0.864868
2023-02-28T20:13:47.265Z,-0.975647
2023-02-28T20:17:12.617Z,-1.005859
2023-02-28T20:20:37.867Z,-0.975647
2023-02-28T20:24:04.101Z,-0.985718
2023-02-28T20:27:29.422Z,-0.965576
2023-02-28T20:30:54.859Z,-0.975647
2023-02-28T20:34:20.051Z,-1.01593
2023-02-28T20:37:45.396Z,-0.945435
2023-02-28T20:41:10.687Z,-0.965576
2023-02-28T20:44:35.966Z,-1.096497
2023-02-28T20:48:01.289Z,-1.086426
2023-02-28T20:51:26.590Z,-1.126709
2023-02-28T20:54:51.917Z,-1.197205
2023-02-28T20:58:17.215Z,-1.166992
2023-02-28T21:01:42.414Z,-1.227417
2023-02-28T21:05:07.564Z,-1.217346
2023-02-28T21:08:32.708Z,-1.066284
2023-02-28T21:11:57.881Z,-0.985718
2023-02-28T21:15:23.035Z,-1.096497
2023-02-28T21:18:48.224Z,-1.217346
2023-02-28T21:22:13.427Z,-1.2677
2023-02-28T21:25:38.551Z,-1.227417
2023-02-28T21:29:03.775Z,-1.187134
2023-02-28T21:32:28.998Z,-1.146851
2023-02-28T21:35:54.794Z,-1.156921
2023-02-28T21:39:19.941Z,-1.096497
2023-02-28T21:42:45.076Z,-1.086426
2023-02-28T21:46:10.282Z,-1.197205
2023-02-28T21:49:35.408Z,-1.277771
2023-02-28T21:53:00.572Z,-1.277771
2023-02-28T21:56:25.816Z,-1.368408
2023-02-28T21:59:50.906Z,-1.368408
2023-02-28T22:03:16.073Z,-1.368408
2023-02-28T22:06:41.238Z,-1.368408
2023-02-28T22:10:06.365Z,-1.368408
2023-02-28T22:13:31.547Z,-1.559753
2023-02-28T22:16:57.205Z,-1.459045
2023-02-28T22:20:21.842Z,-1.539612
2023-02-28T22:23:47.057Z,-1.51947
2023-02-28T22:27:12.240Z,-1.690674
2023-02-28T22:30:37.420Z,-1.670532
2023-02-28T22:34:02.614Z,-1.660461
2023-02-28T22:37:27.754Z,-1.64032
2023-02-28T22:40:52.908Z,-1.589966
2023-02-28T22:44:18.078Z,-1.549683
2023-02-28T22:47:43.283Z,-1.660461
2023-02-28T22:51:08.396Z,-1.700745
2023-02-28T22:54:33.575Z,-1.660461
2023-02-28T22:57:58.720Z,-1.670532
2023-02-28T23:01:24.055Z,-1.670532
2023-02-28T23:04:49.084Z,-1.690674
2023-02-28T23:08:14.222Z,-1.761169
2023-02-28T23:11:39.460Z,-1.791382
2023-02-28T23:15:04.615Z,-1.871948
2023-02-28T23:18:29.772Z,-1.952515
2023-02-28T23:21:54.948Z,-2.053223
2023-02-28T23:25:20.065Z,-1.952515
2023-02-28T23:28:45.230Z,-1.902161
2023-02-28T23:32:10.526Z,-1.952515
2023-02-28T23:35:35.597Z,-1.902161
2023-02-28T23:39:00.756Z,-1.851807
2023-02-28T23:42:25.914Z,-1.77124
2023-02-28T23:45:51.089Z,-1.720886
2023-02-28T23:49:16.264Z,-1.690674
2023-02-28T23:52:41.431Z,-1.660461
2023-02-28T23:56:06.621Z,-1.720886
2023-02-28T23:59:31.773Z,-1.761169
